RZO178 ESSA-LPPT
Flight info
| Callsign | RZO178 |
|---|---|
| Flight time | N/A |
| Altitude | 34000 |
| Route | PETEV N872 ELPAX DCT KULUD Z703 ALS N872 PAM/N0456F350 N872 CIV/N0456F340 DCT MEDIL/N0454F350 DCT KOVIN DCT NIDUV DCT KIHVI UN872 ERIGA UZ218 FUJTI DCT ATLEN DCT ABUPI DCT XAMAX |
| Aircraft | A320/M-SDE3FGHIRWY/LB1 |
Departure
| Time | N/A |
|---|---|
| Airport | Stockholm-Arlanda Airport (ESSA) |
Arrival
| Time | 2026-05-04 00:34 |
|---|---|
| Airport | Lisbon Humberto Delgado Airport (LPPT) |
| Time | Latitude | Longitude | Altitude | Speed | Heading |
|---|---|---|---|---|---|
| 2026-05-03 22:03 | 50.92517 | 4.05283 | 33956 ft | 405 kts | 202° |
| 2026-05-03 22:03 | 50.89849 | 4.03835 | 33955 ft | 405 kts | 202° |
| 2026-05-03 22:04 | 50.84549 | 4.00793 | 33954 ft | 404 kts | 205° |
| 2026-05-03 22:04 | 50.79365 | 3.97393 | 33950 ft | 403 kts | 206° |
| 2026-05-03 22:05 | 50.74626 | 3.92909 | 33951 ft | 396 kts | 225° |
| 2026-05-03 22:05 | 50.70740 | 3.86720 | 33945 ft | 397 kts | 226° |
| 2026-05-03 22:06 | 50.66889 | 3.80479 | 33945 ft | 397 kts | 226° |
| 2026-05-03 22:06 | 50.63036 | 3.74247 | 33938 ft | 397 kts | 226° |
| 2026-05-03 22:07 | 50.59819 | 3.69084 | 33942 ft | 397 kts | 226° |
| 2026-05-03 22:07 | 50.55936 | 3.62891 | 33933 ft | 398 kts | 225° |
| 2026-05-03 22:08 | 50.51400 | 3.55682 | 33939 ft | 398 kts | 225° |
| 2026-05-03 22:08 | 50.48160 | 3.50539 | 33931 ft | 398 kts | 225° |
| 2026-05-03 22:09 | 50.44256 | 3.44341 | 33935 ft | 399 kts | 225° |
| 2026-05-03 22:10 | 50.38400 | 3.35065 | 33935 ft | 399 kts | 225° |
| 2026-05-03 22:10 | 50.34485 | 3.28898 | 33941 ft | 399 kts | 225° |
| 2026-05-03 22:11 | 50.30559 | 3.22729 | 33936 ft | 399 kts | 225° |
| 2026-05-03 22:11 | 50.26637 | 3.16585 | 33941 ft | 399 kts | 225° |
| 2026-05-03 22:12 | 50.22733 | 3.10472 | 33942 ft | 399 kts | 225° |
| 2026-05-03 22:12 | 50.18806 | 3.04338 | 33949 ft | 399 kts | 225° |
| 2026-05-03 22:13 | 50.14884 | 2.98223 | 33945 ft | 399 kts | 225° |
| 2026-05-03 22:13 | 50.10953 | 2.92112 | 33948 ft | 399 kts | 225° |
| 2026-05-03 22:14 | 50.07012 | 2.86018 | 33946 ft | 399 kts | 225° |
| 2026-05-03 22:14 | 50.03075 | 2.79930 | 33953 ft | 398 kts | 224° |
| 2026-05-03 22:15 | 49.99164 | 2.73902 | 33947 ft | 398 kts | 224° |
| 2026-05-03 22:15 | 49.95223 | 2.67841 | 33952 ft | 398 kts | 224° |
| 2026-05-03 22:16 | 49.91286 | 2.61801 | 33952 ft | 398 kts | 224° |
| 2026-05-03 22:16 | 49.87348 | 2.55774 | 33954 ft | 397 kts | 224° |
| 2026-05-03 22:17 | 49.83406 | 2.49752 | 33950 ft | 397 kts | 224° |
| 2026-05-03 22:17 | 49.79493 | 2.43788 | 33956 ft | 397 kts | 224° |
| 2026-05-03 22:18 | 49.75547 | 2.37791 | 33956 ft | 397 kts | 224° |
| 2026-05-03 22:18 | 49.71604 | 2.31818 | 33962 ft | 397 kts | 224° |
| 2026-05-03 22:19 | 49.67657 | 2.25853 | 33963 ft | 397 kts | 223° |
| 2026-05-03 22:19 | 49.63708 | 2.19891 | 33970 ft | 397 kts | 223° |
| 2026-05-03 22:20 | 49.59784 | 2.13980 | 33972 ft | 397 kts | 223° |
| 2026-05-03 22:20 | 49.55828 | 2.08045 | 33975 ft | 397 kts | 223° |
| 2026-05-03 22:21 | 49.51871 | 2.02113 | 33976 ft | 397 kts | 224° |
| 2026-05-03 22:21 | 49.48269 | 1.95679 | 33974 ft | 398 kts | 228° |
| 2026-05-03 22:22 | 49.44779 | 1.89055 | 33970 ft | 398 kts | 229° |
| 2026-05-03 22:22 | 49.41292 | 1.82438 | 33968 ft | 398 kts | 229° |
| 2026-05-03 22:23 | 49.37733 | 1.75937 | 33962 ft | 397 kts | 226° |
| 2026-05-03 22:23 | 49.33964 | 1.69794 | 33960 ft | 397 kts | 224° |
| 2026-05-03 22:24 | 49.30116 | 1.63715 | 33959 ft | 397 kts | 224° |
| 2026-05-03 22:24 | 49.26304 | 1.57594 | 33963 ft | 397 kts | 225° |
| 2026-05-03 22:25 | 49.22503 | 1.51430 | 33961 ft | 397 kts | 225° |
| 2026-05-03 22:25 | 49.18705 | 1.45281 | 33966 ft | 397 kts | 224° |
| 2026-05-03 22:26 | 49.14926 | 1.39169 | 33966 ft | 397 kts | 224° |
| 2026-05-03 22:26 | 49.10974 | 1.33248 | 33969 ft | 397 kts | 221° |
| 2026-05-03 22:27 | 49.06855 | 1.27645 | 33968 ft | 396 kts | 220° |
| 2026-05-03 22:27 | 49.02759 | 1.22101 | 33972 ft | 396 kts | 220° |
| 2026-05-03 22:28 | 48.98672 | 1.16472 | 33968 ft | 396 kts | 220° |
| 2026-05-03 22:28 | 48.94599 | 1.10807 | 33969 ft | 396 kts | 220° |
| 2026-05-03 22:29 | 48.90527 | 1.05172 | 33970 ft | 396 kts | 220° |
| 2026-05-03 22:29 | 48.86444 | 0.99549 | 33969 ft | 396 kts | 220° |
| 2026-05-03 22:30 | 48.82390 | 0.93987 | 33966 ft | 395 kts | 220° |
| 2026-05-03 22:30 | 48.78306 | 0.88394 | 33966 ft | 395 kts | 220° |
| 2026-05-03 22:31 | 48.74221 | 0.82802 | 33964 ft | 396 kts | 220° |
| 2026-05-03 22:31 | 48.70135 | 0.77216 | 33965 ft | 396 kts | 220° |
| 2026-05-03 22:32 | 48.66036 | 0.71643 | 33964 ft | 396 kts | 220° |
| 2026-05-03 22:32 | 48.61937 | 0.66087 | 33962 ft | 396 kts | 220° |
| 2026-05-03 22:33 | 48.57860 | 0.60563 | 33963 ft | 396 kts | 220° |
| 2026-05-03 22:33 | 48.53766 | 0.55017 | 33966 ft | 396 kts | 220° |
| 2026-05-03 22:34 | 48.49664 | 0.49478 | 33968 ft | 395 kts | 220° |
| 2026-05-03 22:34 | 48.45560 | 0.43952 | 33972 ft | 395 kts | 220° |
| 2026-05-03 22:35 | 48.41448 | 0.38434 | 33970 ft | 395 kts | 219° |
| 2026-05-03 22:35 | 48.37344 | 0.32935 | 33978 ft | 395 kts | 219° |
| 2026-05-03 22:36 | 48.33236 | 0.27439 | 33969 ft | 395 kts | 219° |
| 2026-05-03 22:36 | 48.29119 | 0.21954 | 33972 ft | 395 kts | 219° |
| 2026-05-03 22:37 | 48.25023 | 0.16508 | 33972 ft | 395 kts | 219° |
| 2026-05-03 22:37 | 48.20908 | 0.11042 | 33977 ft | 395 kts | 219° |
| 2026-05-03 22:38 | 48.16789 | 0.05580 | 33974 ft | 395 kts | 219° |
| 2026-05-03 22:38 | 48.12666 | 0.00124 | 33972 ft | 395 kts | 219° |
| 2026-05-03 22:39 | 48.08534 | -0.05332 | 33975 ft | 395 kts | 219° |
| 2026-05-03 22:39 | 48.04407 | -0.10759 | 33973 ft | 395 kts | 219° |
| 2026-05-03 22:40 | 48.00275 | -0.16179 | 33971 ft | 395 kts | 218° |
| 2026-05-03 22:40 | 47.96155 | -0.21573 | 33968 ft | 396 kts | 219° |
| 2026-05-03 22:41 | 47.92012 | -0.26994 | 33967 ft | 396 kts | 218° |
| 2026-05-03 22:41 | 47.87864 | -0.32419 | 33970 ft | 396 kts | 218° |
| 2026-05-03 22:42 | 47.83707 | -0.37824 | 33966 ft | 396 kts | 218° |
| 2026-05-03 22:42 | 47.79555 | -0.43223 | 33968 ft | 397 kts | 218° |
| 2026-05-03 22:43 | 47.75390 | -0.48622 | 33965 ft | 397 kts | 218° |
| 2026-05-03 22:43 | 47.71251 | -0.53964 | 33970 ft | 397 kts | 218° |
| 2026-05-03 22:44 | 47.67065 | -0.59358 | 33965 ft | 397 kts | 218° |
| 2026-05-03 22:44 | 47.62880 | -0.64729 | 33966 ft | 398 kts | 218° |
| 2026-05-03 22:45 | 47.58694 | -0.70103 | 33964 ft | 398 kts | 218° |
| 2026-05-03 22:45 | 47.54507 | -0.75487 | 33967 ft | 399 kts | 218° |
| 2026-05-03 22:46 | 47.50306 | -0.80873 | 33973 ft | 402 kts | 218° |
| 2026-05-03 22:46 | 47.46044 | -0.86307 | 33976 ft | 405 kts | 218° |
| 2026-05-03 22:47 | 47.41792 | -0.91723 | 33974 ft | 406 kts | 218° |
| 2026-05-03 22:47 | 47.37515 | -0.97170 | 33973 ft | 406 kts | 218° |
| 2026-05-03 22:48 | 47.33221 | -1.02608 | 33979 ft | 407 kts | 218° |
| 2026-05-03 22:48 | 47.28918 | -1.08040 | 33972 ft | 407 kts | 218° |
| 2026-05-03 22:49 | 47.24618 | -1.13471 | 33975 ft | 407 kts | 218° |
| 2026-05-03 22:49 | 47.20346 | -1.18855 | 33977 ft | 407 kts | 218° |
| 2026-05-03 22:50 | 47.16043 | -1.24259 | 33979 ft | 407 kts | 218° |
| 2026-05-03 22:50 | 47.11734 | -1.29653 | 33981 ft | 407 kts | 218° |
| 2026-05-03 22:51 | 47.07414 | -1.35044 | 33983 ft | 407 kts | 218° |
| 2026-05-03 22:51 | 47.03096 | -1.40434 | 33985 ft | 407 kts | 218° |
| 2026-05-03 22:52 | 46.98776 | -1.45827 | 33986 ft | 407 kts | 218° |
| 2026-05-03 22:52 | 46.94479 | -1.51182 | 33987 ft | 407 kts | 218° |
| 2026-05-03 22:53 | 46.90144 | -1.56551 | 33992 ft | 407 kts | 218° |
| 2026-05-03 22:53 | 46.85813 | -1.61899 | 33998 ft | 407 kts | 218° |
| 2026-05-03 22:54 | 46.81483 | -1.67249 | 33997 ft | 408 kts | 218° |
| 2026-05-03 22:54 | 46.77880 | -1.71690 | 33997 ft | 408 kts | 218° |
| 2026-05-03 22:55 | 46.72832 | -1.77883 | 33993 ft | 407 kts | 218° |
| 2026-05-03 22:55 | 46.69202 | -1.82338 | 33989 ft | 407 kts | 218° |
| 2026-05-03 22:56 | 46.64901 | -1.87616 | 33986 ft | 407 kts | 218° |
| 2026-05-03 22:56 | 46.60539 | -1.92949 | 33980 ft | 407 kts | 218° |
| 2026-05-03 22:57 | 46.56225 | -1.98209 | 33974 ft | 407 kts | 218° |
| 2026-05-03 22:57 | 46.51874 | -2.03501 | 33977 ft | 408 kts | 218° |
| 2026-05-03 22:58 | 46.47517 | -2.08794 | 33974 ft | 409 kts | 218° |
| 2026-05-03 22:58 | 46.43140 | -2.14087 | 33978 ft | 409 kts | 218° |
| 2026-05-03 22:59 | 46.38761 | -2.19380 | 33974 ft | 410 kts | 218° |
| 2026-05-03 22:59 | 46.34412 | -2.24630 | 33970 ft | 410 kts | 218° |
| 2026-05-03 23:00 | 46.30012 | -2.29916 | 33968 ft | 411 kts | 217° |
| 2026-05-03 23:00 | 46.25607 | -2.35197 | 33965 ft | 412 kts | 218° |
| 2026-05-03 23:01 | 46.21191 | -2.40494 | 33959 ft | 413 kts | 218° |
| 2026-05-03 23:01 | 46.16766 | -2.45792 | 33960 ft | 414 kts | 218° |
| 2026-05-03 23:02 | 46.12345 | -2.51067 | 33955 ft | 415 kts | 218° |
| 2026-05-03 23:02 | 46.07882 | -2.56384 | 33962 ft | 416 kts | 218° |
| 2026-05-03 23:03 | 46.03397 | -2.61710 | 33969 ft | 417 kts | 218° |
| 2026-05-03 23:03 | 45.98901 | -2.67031 | 33968 ft | 418 kts | 218° |
| 2026-05-03 23:04 | 45.94402 | -2.72367 | 33969 ft | 419 kts | 218° |
| 2026-05-03 23:04 | 45.89889 | -2.77702 | 33968 ft | 420 kts | 218° |
| 2026-05-03 23:05 | 45.85389 | -2.83002 | 33972 ft | 421 kts | 218° |
| 2026-05-03 23:05 | 45.80851 | -2.88336 | 33976 ft | 422 kts | 218° |
| 2026-05-03 23:06 | 45.76303 | -2.93669 | 33976 ft | 422 kts | 218° |
| 2026-05-03 23:06 | 45.71744 | -2.99004 | 33978 ft | 423 kts | 218° |
| 2026-05-03 23:07 | 45.67200 | -3.04308 | 33984 ft | 424 kts | 218° |
| 2026-05-03 23:07 | 45.62627 | -3.09623 | 33986 ft | 424 kts | 218° |
| 2026-05-03 23:08 | 45.58031 | -3.14964 | 33980 ft | 425 kts | 218° |
| 2026-05-03 23:08 | 45.53443 | -3.20296 | 33984 ft | 425 kts | 218° |
| 2026-05-03 23:09 | 45.48835 | -3.25613 | 33990 ft | 426 kts | 218° |
| 2026-05-03 23:09 | 45.44256 | -3.30894 | 33984 ft | 426 kts | 218° |
| 2026-05-03 23:10 | 45.39651 | -3.36214 | 33990 ft | 426 kts | 218° |
| 2026-05-03 23:10 | 45.35029 | -3.41528 | 33986 ft | 427 kts | 218° |
| 2026-05-03 23:11 | 45.30402 | -3.46828 | 33985 ft | 427 kts | 218° |
| 2026-05-03 23:11 | 45.25776 | -3.52127 | 33989 ft | 427 kts | 218° |
| 2026-05-03 23:12 | 45.21168 | -3.57383 | 33988 ft | 427 kts | 219° |
| 2026-05-03 23:12 | 45.16527 | -3.62672 | 33994 ft | 427 kts | 218° |
| 2026-05-03 23:13 | 45.11893 | -3.67952 | 34003 ft | 427 kts | 219° |
| 2026-05-03 23:13 | 45.07246 | -3.73221 | 34001 ft | 427 kts | 219° |
| 2026-05-03 23:14 | 45.02600 | -3.78477 | 34005 ft | 427 kts | 219° |
| 2026-05-03 23:14 | 44.97958 | -3.83723 | 34003 ft | 427 kts | 219° |
| 2026-05-03 23:15 | 44.93341 | -3.88929 | 33995 ft | 427 kts | 219° |
| 2026-05-03 23:15 | 44.88691 | -3.94167 | 33999 ft | 427 kts | 219° |
| 2026-05-03 23:16 | 44.84039 | -3.99389 | 33999 ft | 427 kts | 219° |
| 2026-05-03 23:16 | 44.79380 | -4.04608 | 34000 ft | 427 kts | 219° |
| 2026-05-03 23:17 | 44.74726 | -4.09816 | 33998 ft | 427 kts | 219° |
| 2026-05-03 23:17 | 44.70070 | -4.15012 | 34007 ft | 427 kts | 219° |
| 2026-05-03 23:18 | 44.65398 | -4.20195 | 34003 ft | 427 kts | 219° |
| 2026-05-03 23:18 | 44.60732 | -4.25377 | 33997 ft | 427 kts | 219° |
| 2026-05-03 23:19 | 44.56103 | -4.30518 | 34005 ft | 427 kts | 219° |
| 2026-05-03 23:19 | 44.51445 | -4.35675 | 34004 ft | 426 kts | 219° |
| 2026-05-03 23:20 | 44.46783 | -4.40819 | 34004 ft | 426 kts | 219° |
| 2026-05-03 23:20 | 44.42123 | -4.45960 | 34005 ft | 426 kts | 219° |
| 2026-05-03 23:21 | 44.37492 | -4.51046 | 34006 ft | 426 kts | 219° |
| 2026-05-03 23:21 | 44.32830 | -4.56145 | 34002 ft | 426 kts | 219° |
| 2026-05-03 23:22 | 44.25831 | -4.63798 | 34010 ft | 425 kts | 219° |
| 2026-05-03 23:22 | 44.21175 | -4.68893 | 34009 ft | 425 kts | 219° |
| 2026-05-03 23:23 | 44.16507 | -4.73983 | 34009 ft | 426 kts | 219° |
| 2026-05-03 23:23 | 44.11859 | -4.79030 | 34014 ft | 426 kts | 219° |
| 2026-05-03 23:24 | 44.07186 | -4.84111 | 34013 ft | 426 kts | 219° |
| 2026-05-03 23:24 | 44.02508 | -4.89182 | 34013 ft | 426 kts | 219° |
| 2026-05-03 23:25 | 43.97820 | -4.94241 | 34013 ft | 427 kts | 219° |
| 2026-05-03 23:25 | 43.93118 | -4.99297 | 34017 ft | 427 kts | 219° |
| 2026-05-03 23:26 | 43.88421 | -5.04350 | 34016 ft | 427 kts | 219° |
| 2026-05-03 23:26 | 43.83690 | -5.09265 | 34018 ft | 428 kts | 217° |
| 2026-05-03 23:27 | 43.78797 | -5.13978 | 34017 ft | 428 kts | 216° |
| 2026-05-03 23:27 | 43.73885 | -5.18643 | 34019 ft | 428 kts | 216° |
| 2026-05-03 23:28 | 43.68998 | -5.23358 | 34019 ft | 428 kts | 217° |
| 2026-05-03 23:28 | 43.64137 | -5.28083 | 34027 ft | 428 kts | 217° |
| 2026-05-03 23:29 | 43.59258 | -5.32809 | 34025 ft | 428 kts | 217° |
| 2026-05-03 23:29 | 43.54374 | -5.37518 | 34034 ft | 428 kts | 217° |
| 2026-05-03 23:30 | 43.49489 | -5.42217 | 34035 ft | 428 kts | 217° |
| 2026-05-03 23:30 | 43.44605 | -5.46902 | 34037 ft | 427 kts | 217° |
| 2026-05-03 23:31 | 43.39751 | -5.51555 | 34037 ft | 427 kts | 217° |
| 2026-05-03 23:31 | 43.34864 | -5.56241 | 34034 ft | 427 kts | 217° |
| 2026-05-03 23:32 | 43.29983 | -5.60904 | 34040 ft | 427 kts | 217° |
| 2026-05-03 23:32 | 43.25092 | -5.65561 | 34038 ft | 428 kts | 217° |
| 2026-05-03 23:33 | 43.20198 | -5.70212 | 34034 ft | 427 kts | 217° |
| 2026-05-03 23:33 | 43.15337 | -5.74832 | 34038 ft | 428 kts | 217° |
| 2026-05-03 23:34 | 43.10431 | -5.79464 | 34037 ft | 428 kts | 217° |
| 2026-05-03 23:34 | 43.05529 | -5.84096 | 34027 ft | 428 kts | 217° |
| 2026-05-03 23:35 | 43.00626 | -5.88724 | 34025 ft | 429 kts | 217° |
| 2026-05-03 23:35 | 42.95710 | -5.93348 | 34043 ft | 429 kts | 217° |
| 2026-05-03 23:36 | 42.90795 | -5.97968 | 34025 ft | 428 kts | 217° |
| 2026-05-03 23:36 | 42.85881 | -6.02584 | 34101 ft | 429 kts | 216° |
| 2026-05-03 23:37 | 42.80959 | -6.07191 | 34010 ft | 428 kts | 216° |
| 2026-05-03 23:37 | 42.76072 | -6.11750 | 34001 ft | 428 kts | 216° |
| 2026-05-03 23:38 | 42.71144 | -6.16341 | 34006 ft | 429 kts | 216° |
| 2026-05-03 23:38 | 42.66219 | -6.20935 | 34020 ft | 429 kts | 216° |
| 2026-05-03 23:39 | 42.61295 | -6.25514 | 34019 ft | 429 kts | 216° |
| 2026-05-03 23:39 | 42.56360 | -6.30089 | 34021 ft | 429 kts | 216° |
| 2026-05-03 23:40 | 42.52257 | -6.33881 | 34019 ft | 429 kts | 216° |
| 2026-05-03 23:40 | 42.47323 | -6.38439 | 34023 ft | 429 kts | 216° |
| 2026-05-03 23:41 | 42.42380 | -6.42989 | 34025 ft | 429 kts | 216° |
| 2026-05-03 23:41 | 42.37448 | -6.47525 | 34016 ft | 428 kts | 216° |
| 2026-05-03 23:42 | 42.32517 | -6.52059 | 34026 ft | 428 kts | 216° |
| 2026-05-03 23:42 | 42.27591 | -6.56567 | 34018 ft | 428 kts | 216° |
| 2026-05-03 23:43 | 42.22650 | -6.61080 | 34015 ft | 428 kts | 216° |
| 2026-05-03 23:43 | 42.17717 | -6.65589 | 34021 ft | 428 kts | 216° |
| 2026-05-03 23:44 | 42.12821 | -6.70059 | 34020 ft | 428 kts | 216° |
| 2026-05-03 23:44 | 42.07885 | -6.74545 | 34028 ft | 428 kts | 216° |
| 2026-05-03 23:45 | 42.02948 | -6.79022 | 34031 ft | 428 kts | 216° |
| 2026-05-03 23:45 | 41.98012 | -6.83496 | 34024 ft | 428 kts | 216° |
| 2026-05-03 23:46 | 41.93077 | -6.87962 | 34026 ft | 428 kts | 216° |
| 2026-05-03 23:46 | 41.88135 | -6.92419 | 34033 ft | 428 kts | 216° |
| 2026-05-03 23:47 | 41.83187 | -6.96868 | 34037 ft | 428 kts | 216° |
| 2026-05-03 23:47 | 41.78240 | -7.01320 | 34040 ft | 428 kts | 216° |
| 2026-05-03 23:48 | 41.73285 | -7.05769 | 34045 ft | 428 kts | 216° |
| 2026-05-03 23:48 | 41.68338 | -7.10205 | 34044 ft | 428 kts | 216° |
| 2026-05-03 23:49 | 41.63413 | -7.14610 | 34042 ft | 428 kts | 216° |
| 2026-05-03 23:49 | 41.58461 | -7.19021 | 34044 ft | 428 kts | 216° |
| 2026-05-03 23:50 | 41.53509 | -7.23426 | 34045 ft | 428 kts | 216° |
| 2026-05-03 23:50 | 41.48552 | -7.27836 | 34038 ft | 428 kts | 216° |
| 2026-05-03 23:51 | 41.43594 | -7.32238 | 34044 ft | 428 kts | 216° |
| 2026-05-03 23:51 | 41.38626 | -7.36631 | 34043 ft | 428 kts | 216° |
| 2026-05-03 23:52 | 41.33660 | -7.41013 | 34040 ft | 428 kts | 216° |
| 2026-05-03 23:52 | 41.28701 | -7.45402 | 34048 ft | 428 kts | 216° |
| 2026-05-03 23:53 | 41.23759 | -7.49763 | 34051 ft | 428 kts | 216° |
| 2026-05-03 23:53 | 41.18785 | -7.54127 | 34056 ft | 428 kts | 216° |
| 2026-05-03 23:54 | 41.13815 | -7.58490 | 34060 ft | 428 kts | 216° |
| 2026-05-03 23:54 | 41.08839 | -7.62851 | 34063 ft | 428 kts | 216° |
| 2026-05-03 23:55 | 41.03866 | -7.67202 | 34065 ft | 428 kts | 216° |
| 2026-05-03 23:55 | 40.98888 | -7.71534 | 34072 ft | 428 kts | 216° |
| 2026-05-03 23:56 | 40.93917 | -7.75862 | 34076 ft | 427 kts | 216° |
| 2026-05-03 23:56 | 40.88945 | -7.80181 | 34085 ft | 427 kts | 216° |
| 2026-05-03 23:57 | 40.84012 | -7.84465 | 34087 ft | 427 kts | 216° |
| 2026-05-03 23:57 | 40.79051 | -7.88770 | 34074 ft | 426 kts | 216° |
| 2026-05-03 23:58 | 40.74098 | -7.93058 | 34071 ft | 425 kts | 216° |
| 2026-05-03 23:58 | 40.69139 | -7.97339 | 34086 ft | 425 kts | 216° |
| 2026-05-03 23:59 | 40.64187 | -8.01597 | 34079 ft | 425 kts | 216° |
| 2026-05-03 23:59 | 40.59229 | -8.05862 | 34081 ft | 425 kts | 216° |
| 2026-05-04 00:00 | 40.54274 | -8.10117 | 34075 ft | 425 kts | 216° |
| 2026-05-04 00:00 | 40.49350 | -8.14340 | 34072 ft | 425 kts | 216° |
| 2026-05-04 00:01 | 40.44392 | -8.18591 | 34071 ft | 425 kts | 216° |
| 2026-05-04 00:01 | 40.39440 | -8.22820 | 34070 ft | 424 kts | 216° |
| 2026-05-04 00:02 | 40.34495 | -8.27034 | 34076 ft | 424 kts | 216° |
| 2026-05-04 00:02 | 40.29551 | -8.31242 | 34086 ft | 423 kts | 216° |
| 2026-05-04 00:03 | 40.24605 | -8.35440 | 34079 ft | 423 kts | 216° |
| 2026-05-04 00:03 | 40.19649 | -8.39629 | 33446 ft | 425 kts | 216° |
| 2026-05-04 00:04 | 40.17202 | -8.41700 | 32574 ft | 423 kts | 216° |
| 2026-05-04 00:04 | 40.14738 | -8.43788 | 31658 ft | 422 kts | 216° |
| 2026-05-04 00:04 | 40.12269 | -8.45880 | 30744 ft | 422 kts | 216° |
| 2026-05-04 00:04 | 40.09802 | -8.47964 | 29728 ft | 422 kts | 216° |
| 2026-05-04 00:05 | 40.07328 | -8.50053 | 28928 ft | 423 kts | 216° |
| 2026-05-04 00:05 | 40.04715 | -8.51896 | 28647 ft | 432 kts | 206° |
| 2026-05-04 00:05 | 40.01805 | -8.53000 | 28376 ft | 441 kts | 194° |
| 2026-05-04 00:05 | 39.98710 | -8.53255 | 28100 ft | 452 kts | 183° |
| 2026-05-04 00:06 | 39.95579 | -8.52999 | 27820 ft | 443 kts | 182° |
| 2026-05-04 00:06 | 39.92567 | -8.52729 | 27612 ft | 425 kts | 182° |
| 2026-05-04 00:06 | 39.89682 | -8.52463 | 27467 ft | 408 kts | 182° |
| 2026-05-04 00:06 | 39.86919 | -8.52214 | 27055 ft | 399 kts | 183° |
| 2026-05-04 00:07 | 39.84176 | -8.51981 | 26516 ft | 394 kts | 183° |
| 2026-05-04 00:07 | 39.81466 | -8.51758 | 26258 ft | 383 kts | 183° |
| 2026-05-04 00:07 | 39.78850 | -8.51561 | 26123 ft | 367 kts | 186° |
| 2026-05-04 00:07 | 39.76393 | -8.51857 | 25989 ft | 345 kts | 199° |
| 2026-05-04 00:08 | 39.74156 | -8.52777 | 25751 ft | 330 kts | 209° |
| 2026-05-04 00:08 | 39.72187 | -8.54184 | 25336 ft | 318 kts | 216° |
| 2026-05-04 00:08 | 39.70309 | -8.55693 | 25048 ft | 317 kts | 216° |
| 2026-05-04 00:08 | 39.68425 | -8.57188 | 24786 ft | 318 kts | 216° |
| 2026-05-04 00:09 | 39.66544 | -8.58668 | 24512 ft | 315 kts | 216° |
| 2026-05-04 00:09 | 39.64667 | -8.60138 | 24246 ft | 314 kts | 215° |
| 2026-05-04 00:09 | 39.62799 | -8.61603 | 23969 ft | 313 kts | 215° |
| 2026-05-04 00:09 | 39.60966 | -8.63044 | 23719 ft | 311 kts | 216° |
| 2026-05-04 00:10 | 39.59113 | -8.64498 | 23468 ft | 311 kts | 216° |
| 2026-05-04 00:10 | 39.57267 | -8.65943 | 23181 ft | 310 kts | 216° |
| 2026-05-04 00:10 | 39.55428 | -8.67384 | 22901 ft | 309 kts | 215° |
| 2026-05-04 00:10 | 39.53588 | -8.68828 | 22636 ft | 308 kts | 215° |
| 2026-05-04 00:11 | 39.51757 | -8.70265 | 22361 ft | 307 kts | 216° |
| 2026-05-04 00:11 | 39.49929 | -8.71695 | 22099 ft | 307 kts | 215° |
| 2026-05-04 00:11 | 39.48101 | -8.73117 | 21847 ft | 306 kts | 214° |
| 2026-05-04 00:11 | 39.46272 | -8.74533 | 21587 ft | 306 kts | 215° |
| 2026-05-04 00:12 | 39.44455 | -8.75955 | 21326 ft | 305 kts | 216° |
| 2026-05-04 00:12 | 39.42643 | -8.77378 | 21066 ft | 304 kts | 215° |
| 2026-05-04 00:12 | 39.40872 | -8.78851 | 20811 ft | 301 kts | 220° |
| 2026-05-04 00:12 | 39.39262 | -8.80578 | 20556 ft | 299 kts | 226° |
| 2026-05-04 00:13 | 39.37841 | -8.82519 | 20310 ft | 297 kts | 231° |
| 2026-05-04 00:13 | 39.36482 | -8.84522 | 20061 ft | 296 kts | 231° |
| 2026-05-04 00:13 | 39.35126 | -8.86517 | 19817 ft | 296 kts | 231° |
| 2026-05-04 00:13 | 39.33767 | -8.88518 | 19569 ft | 295 kts | 231° |
| 2026-05-04 00:14 | 39.32429 | -8.90483 | 19331 ft | 299 kts | 231° |
| 2026-05-04 00:14 | 39.31049 | -8.92507 | 19083 ft | 298 kts | 231° |
| 2026-05-04 00:14 | 39.29685 | -8.94500 | 18844 ft | 295 kts | 231° |
| 2026-05-04 00:14 | 39.28328 | -8.96481 | 18603 ft | 294 kts | 231° |
| 2026-05-04 00:15 | 39.26975 | -8.98455 | 18354 ft | 293 kts | 231° |
| 2026-05-04 00:15 | 39.25625 | -9.00427 | 18102 ft | 293 kts | 231° |
| 2026-05-04 00:15 | 39.24280 | -9.02397 | 17829 ft | 292 kts | 231° |
| 2026-05-04 00:15 | 39.22937 | -9.04365 | 17551 ft | 292 kts | 231° |
| 2026-05-04 00:16 | 39.21597 | -9.06325 | 17292 ft | 291 kts | 231° |
| 2026-05-04 00:16 | 39.20258 | -9.08280 | 17025 ft | 291 kts | 231° |
| 2026-05-04 00:16 | 39.18920 | -9.10231 | 16763 ft | 290 kts | 231° |
| 2026-05-04 00:16 | 39.17581 | -9.12180 | 16502 ft | 290 kts | 231° |
| 2026-05-04 00:17 | 39.16248 | -9.14118 | 16245 ft | 289 kts | 231° |
| 2026-05-04 00:17 | 39.14915 | -9.16059 | 15992 ft | 289 kts | 231° |
| 2026-05-04 00:17 | 39.13588 | -9.17995 | 15739 ft | 288 kts | 231° |
| 2026-05-04 00:17 | 39.12263 | -9.19925 | 15490 ft | 288 kts | 231° |
| 2026-05-04 00:18 | 39.10938 | -9.21853 | 15238 ft | 287 kts | 231° |
| 2026-05-04 00:18 | 39.09628 | -9.23754 | 14993 ft | 287 kts | 231° |
| 2026-05-04 00:18 | 39.08303 | -9.25674 | 14749 ft | 287 kts | 230° |
| 2026-05-04 00:18 | 39.06981 | -9.27591 | 14513 ft | 286 kts | 230° |
| 2026-05-04 00:19 | 39.05662 | -9.29507 | 14260 ft | 286 kts | 230° |
| 2026-05-04 00:19 | 39.04342 | -9.31418 | 14026 ft | 286 kts | 230° |
| 2026-05-04 00:19 | 39.03022 | -9.33327 | 13774 ft | 286 kts | 230° |
| 2026-05-04 00:19 | 39.01701 | -9.35237 | 13505 ft | 285 kts | 230° |
| 2026-05-04 00:20 | 39.00249 | -9.36972 | 13234 ft | 288 kts | 215° |
| 2026-05-04 00:20 | 38.98408 | -9.38013 | 12966 ft | 291 kts | 203° |
| 2026-05-04 00:20 | 38.96494 | -9.38880 | 12704 ft | 291 kts | 202° |
| 2026-05-04 00:20 | 38.94586 | -9.39734 | 12446 ft | 290 kts | 202° |
| 2026-05-04 00:21 | 38.92682 | -9.40582 | 12184 ft | 289 kts | 202° |
| 2026-05-04 00:21 | 38.90775 | -9.41431 | 11931 ft | 289 kts | 202° |
| 2026-05-04 00:21 | 38.88881 | -9.42275 | 11676 ft | 288 kts | 202° |
| 2026-05-04 00:21 | 38.86987 | -9.43120 | 11423 ft | 288 kts | 202° |
| 2026-05-04 00:22 | 38.85098 | -9.43961 | 11174 ft | 287 kts | 202° |
| 2026-05-04 00:22 | 38.83213 | -9.44797 | 10927 ft | 286 kts | 202° |
| 2026-05-04 00:22 | 38.81334 | -9.45631 | 10684 ft | 286 kts | 202° |
| 2026-05-04 00:22 | 38.79464 | -9.46462 | 10438 ft | 285 kts | 202° |
| 2026-05-04 00:23 | 38.77584 | -9.47297 | 10202 ft | 284 kts | 202° |
| 2026-05-04 00:23 | 38.75718 | -9.48129 | 9997 ft | 284 kts | 202° |
| 2026-05-04 00:23 | 38.73853 | -9.48964 | 9867 ft | 284 kts | 202° |
| 2026-05-04 00:23 | 38.71987 | -9.49798 | 9732 ft | 284 kts | 202° |
| 2026-05-04 00:24 | 38.70121 | -9.50628 | 9589 ft | 283 kts | 202° |
| 2026-05-04 00:24 | 38.68887 | -9.51175 | 9278 ft | 285 kts | 201° |
| 2026-05-04 00:24 | 38.67000 | -9.52007 | 8768 ft | 287 kts | 201° |
| 2026-05-04 00:24 | 38.65119 | -9.52833 | 8310 ft | 287 kts | 201° |
| 2026-05-04 00:25 | 38.63265 | -9.53627 | 8148 ft | 272 kts | 197° |
| 2026-05-04 00:25 | 38.61445 | -9.53701 | 8002 ft | 261 kts | 168° |
| 2026-05-04 00:25 | 38.59881 | -9.52647 | 7931 ft | 253 kts | 138° |
| 2026-05-04 00:25 | 38.58906 | -9.50750 | 7526 ft | 260 kts | 105° |
| 2026-05-04 00:26 | 38.58596 | -9.48471 | 7123 ft | 261 kts | 96° |
| 2026-05-04 00:26 | 38.58356 | -9.46190 | 6837 ft | 257 kts | 96° |
| 2026-05-04 00:26 | 38.58119 | -9.43914 | 6469 ft | 257 kts | 96° |
| 2026-05-04 00:26 | 38.57880 | -9.41669 | 6157 ft | 254 kts | 96° |
| 2026-05-04 00:27 | 38.57638 | -9.39429 | 5785 ft | 253 kts | 96° |
| 2026-05-04 00:27 | 38.57401 | -9.37229 | 5426 ft | 253 kts | 96° |
| 2026-05-04 00:27 | 38.57162 | -9.35026 | 5169 ft | 248 kts | 96° |
| 2026-05-04 00:27 | 38.56928 | -9.32885 | 5010 ft | 239 kts | 95° |
| 2026-05-04 00:28 | 38.56982 | -9.30840 | 4879 ft | 225 kts | 73° |
| 2026-05-04 00:28 | 38.57523 | -9.28998 | 4590 ft | 220 kts | 65° |
| 2026-05-04 00:28 | 38.58104 | -9.27205 | 4325 ft | 216 kts | 65° |
| 2026-05-04 00:28 | 38.58670 | -9.25445 | 4096 ft | 211 kts | 63° |
| 2026-05-04 00:29 | 38.59450 | -9.23942 | 3978 ft | 199 kts | 40° |
| 2026-05-04 00:29 | 38.60566 | -9.22959 | 3775 ft | 193 kts | 19° |
| 2026-05-04 00:29 | 38.61803 | -9.22302 | 3530 ft | 192 kts | 19° |
| 2026-05-04 00:29 | 38.63039 | -9.21646 | 3270 ft | 191 kts | 19° |
| 2026-05-04 00:30 | 38.64261 | -9.20995 | 3048 ft | 187 kts | 19° |
| 2026-05-04 00:30 | 38.65422 | -9.20376 | 2784 ft | 178 kts | 20° |
| 2026-05-04 00:30 | 38.66528 | -9.19786 | 2529 ft | 165 kts | 19° |
| 2026-05-04 00:30 | 38.67536 | -9.19248 | 2314 ft | 150 kts | 19° |
| 2026-05-04 00:31 | 38.68470 | -9.18751 | 2113 ft | 141 kts | 19° |
| 2026-05-04 00:31 | 38.69360 | -9.18277 | 1935 ft | 136 kts | 18° |
| 2026-05-04 00:31 | 38.70224 | -9.17817 | 1754 ft | 135 kts | 19° |
| 2026-05-04 00:31 | 38.71086 | -9.17357 | 1563 ft | 134 kts | 19° |
| 2026-05-04 00:32 | 38.71946 | -9.16899 | 1393 ft | 134 kts | 19° |
| 2026-05-04 00:32 | 38.72804 | -9.16441 | 1205 ft | 134 kts | 20° |
| 2026-05-04 00:32 | 38.73671 | -9.15979 | 1012 ft | 136 kts | 20° |
| 2026-05-04 00:32 | 38.74547 | -9.15511 | 823 ft | 137 kts | 20° |
| 2026-05-04 00:33 | 38.75414 | -9.15047 | 653 ft | 137 kts | 20° |
| 2026-05-04 00:33 | 38.77171 | -9.14112 | 360 ft | 125 kts | 21° |
| 2026-05-04 00:33 | 38.77819 | -9.13764 | 356 ft | 76 kts | 22° |
| 2026-05-04 00:34 | 38.78155 | -9.13582 | 359 ft | 35 kts | 23° |
| 2026-05-04 00:34 | 38.78317 | -9.13432 | 356 ft | 29 kts | 46° |
| 2026-05-04 00:34 | 38.78355 | -9.13269 | 359 ft | 17 kts | 140° |
| 2026-05-04 00:34 | 38.78255 | -9.13300 | 355 ft | 16 kts | 201° |
| 2026-05-04 00:35 | 38.78166 | -9.13346 | 356 ft | 13 kts | 202° |
| 2026-05-04 00:35 | 38.78077 | -9.13393 | 352 ft | 15 kts | 202° |
| 2026-05-04 00:35 | 38.77967 | -9.13400 | 352 ft | 18 kts | 165° |
| 2026-05-04 00:35 | 38.77844 | -9.13369 | 352 ft | 14 kts | 168° |
| 2026-05-04 00:36 | 38.77737 | -9.13339 | 353 ft | 17 kts | 168° |
| 2026-05-04 00:36 | 38.77633 | -9.13320 | 354 ft | 14 kts | 178° |
| 2026-05-04 00:36 | 38.77530 | -9.13308 | 351 ft | 16 kts | 168° |
| 2026-05-04 00:36 | 38.77409 | -9.13274 | 351 ft | 19 kts | 169° |
| 2026-05-04 00:37 | 38.77292 | -9.13249 | 351 ft | 17 kts | 171° |
| 2026-05-04 00:37 | 38.77166 | -9.13217 | 354 ft | 20 kts | 168° |
| 2026-05-04 00:37 | 38.77044 | -9.13182 | 351 ft | 12 kts | 167° |
| 2026-05-04 00:37 | 38.77023 | -9.13126 | 351 ft | 4 kts | 85° |
| 2026-05-04 00:38 | 38.77027 | -9.13098 | 351 ft | 3 kts | 77° |
| 2026-05-04 00:38 | 38.77028 | -9.13089 | 351 ft | 0 kts | 77° |